Time;durP1;ratioP1;P1;durP2;ratioP2;P2;SDS_P1;SDS_P2;PMS_P1;PMS_P2;Temp;Humidity;BMP_temperature;BMP_pressure;BME280_temperature;BME280_humidity;BME280_pressure;Samples;Min_cycle;Max_cycle;Signal;HPM_P1;HPM_P2
2021/12/31 00:00:58;;;;;;;1.10;1.10;;;;;;;14.52;100.00;99085.53;4954655;28;20069;-56
2021/12/31 00:03:24;;;;;;;1.38;1.38;;;;;;;14.59;100.00;99087.06;4949834;28;20046;-58
2021/12/31 00:05:49;;;;;;;1.10;1.10;;;;;;;14.69;100.00;99084.22;4951656;28;20030;-58
2021/12/31 00:08:14;;;;;;;0.95;0.95;;;;;;;14.57;100.00;99096.56;4954980;28;20564;-57
2021/12/31 00:10:40;;;;;;;1.70;1.33;;;;;;;14.60;100.00;99093.06;4956929;28;20031;-57
2021/12/31 00:13:06;;;;;;;1.30;1.20;;;;;;;14.58;100.00;99102.59;4952408;28;20552;-57
2021/12/31 00:15:31;;;;;;;0.95;0.90;;;;;;;14.47;100.00;99112.38;4956181;28;20394;-57
2021/12/31 00:17:57;;;;;;;1.20;1.20;;;;;;;14.54;100.00;99106.16;4957530;28;20588;-58
2021/12/31 00:20:24;;;;;;;1.10;1.10;;;;;;;14.45;100.00;99101.22;4955863;28;20062;-55
2021/12/31 00:23:05;;;;;;;0.90;0.90;;;;;;;14.42;100.00;99101.31;4952895;28;20523;-58
2021/12/31 00:25:32;;;;;;;0.90;0.90;;;;;;;14.38;100.00;99112.59;4952422;28;20035;-58
2021/12/31 00:27:58;;;;;;;0.93;0.93;;;;;;;14.42;100.00;99120.22;4957987;28;20068;-57
2021/12/31 00:30:24;;;;;;;2.67;1.45;;;;;;;14.37;100.00;99110.91;4956322;28;20039;-56
2021/12/31 00:32:50;;;;;;;1.00;0.77;;;;;;;14.40;100.00;99114.25;4950918;28;20035;-57
2021/12/31 00:35:16;;;;;;;0.90;0.90;;;;;;;14.31;100.00;99113.59;4954466;28;20055;-57
2021/12/31 00:37:42;;;;;;;1.38;1.30;;;;;;;14.40;100.00;99123.72;4956333;28;20085;-57
2021/12/31 00:40:10;;;;;;;1.00;1.00;;;;;;;14.35;100.00;99120.38;4952088;28;20046;-56
2021/12/31 00:42:36;;;;;;;2.05;1.08;;;;;;;14.35;100.00;99126.41;4949917;28;20084;-53
2021/12/31 00:45:04;;;;;;;1.10;1.10;;;;;;;14.19;100.00;99115.63;4951369;28;20057;-54
2021/12/31 00:47:29;;;;;;;1.52;1.42;;;;;;;14.21;100.00;99143.13;4952923;28;20425;-59
2021/12/31 00:49:54;;;;;;;1.13;1.10;;;;;;;14.13;100.00;99131.25;4950868;28;20039;-57
2021/12/31 00:52:20;;;;;;;0.80;0.80;;;;;;;14.16;100.00;99132.91;4948554;28;20031;-57
2021/12/31 00:54:45;;;;;;;1.20;1.15;;;;;;;14.12;100.00;99134.72;4951223;28;20127;-57
2021/12/31 00:57:11;;;;;;;1.45;1.45;;;;;;;14.07;100.00;99139.16;4954001;28;20034;-57
2021/12/31 00:59:37;;;;;;;1.10;1.10;;;;;;;13.99;100.00;99147.97;4950394;28;20489;-57
2021/12/31 01:02:05;;;;;;;1.00;1.00;;;;;;;13.98;100.00;99149.69;4950921;28;20062;-58
2021/12/31 01:04:32;;;;;;;1.27;1.10;;;;;;;14.02;100.00;99135.84;4953889;28;20113;-56
2021/12/31 01:06:59;;;;;;;1.10;1.10;;;;;;;13.94;100.00;99140.34;4955111;28;20038;-55
2021/12/31 01:09:26;;;;;;;1.30;1.30;;;;;;;13.88;100.00;99149.94;4951640;28;20051;-57
2021/12/31 01:11:51;;;;;;;0.90;0.90;;;;;;;13.84;100.00;99151.75;4952215;28;20372;-58
2021/12/31 01:17:00;;;;;;;0.90;0.90;;;;;;;13.78;100.00;99163.94;4953983;28;20605;-59
2021/12/31 01:21:53;;;;;;;1.10;1.10;;;;;;;13.95;100.00;99151.50;4950439;28;20047;-58
2021/12/31 01:24:19;;;;;;;1.30;1.30;;;;;;;13.95;100.00;99164.38;4954976;28;20042;-59
2021/12/31 01:26:45;;;;;;;1.33;1.33;;;;;;;13.90;100.00;99151.59;4952961;28;20385;-60
2021/12/31 01:29:11;;;;;;;0.93;0.93;;;;;;;13.83;100.00;99132.03;4950204;28;20031;-59
2021/12/31 01:31:36;;;;;;;1.30;1.20;;;;;;;13.90;100.00;99148.19;4951229;28;20098;-57
2021/12/31 01:34:02;;;;;;;1.10;1.10;;;;;;;13.92;100.00;99152.41;4953827;28;20030;-57
2021/12/31 01:36:28;;;;;;;1.10;1.10;;;;;;;13.93;100.00;99150.66;4953209;28;20601;-56
2021/12/31 01:38:54;;;;;;;1.15;1.15;;;;;;;13.83;100.00;99147.50;4947836;28;20031;-57
2021/12/31 01:41:21;;;;;;;1.20;1.20;;;;;;;13.84;100.00;99148.31;4953001;28;20038;-58
2021/12/31 01:43:47;;;;;;;1.10;1.10;;;;;;;13.65;100.00;99135.88;4955461;28;20674;-54
2021/12/31 01:46:13;;;;;;;1.30;1.30;;;;;;;13.64;100.00;99147.06;4956431;28;20027;-57
2021/12/31 01:51:24;;;;;;;1.10;1.10;;;;;;;13.55;100.00;99157.56;4951708;28;20039;-58
2021/12/31 01:53:50;;;;;;;1.08;1.08;;;;;;;13.58;100.00;99134.31;4954279;28;20449;-59
2021/12/31 01:56:20;;;;;;;0.95;0.95;;;;;;;13.55;100.00;99136.97;4950723;28;20070;-55
2021/12/31 01:58:49;;;;;;;0.95;0.95;;;;;;;13.58;100.00;99154.06;4949918;28;20525;-58
2021/12/31 02:01:15;;;;;;;0.93;0.93;;;;;;;13.60;100.00;99152.31;4951340;28;20075;-59
2021/12/31 02:03:40;;;;;;;1.08;1.08;;;;;;;13.53;100.00;99155.91;4957910;28;20039;-55
2021/12/31 02:06:06;;;;;;;2.75;0.98;;;;;;;13.55;100.00;99151.56;4931704;28;20039;-55
2021/12/31 02:08:32;;;;;;;0.98;0.98;;;;;;;13.64;100.00;99152.22;4950430;28;20062;-58
2021/12/31 02:10:58;;;;;;;0.80;0.80;;;;;;;13.67;100.00;99157.28;4953003;28;20055;-57
2021/12/31 02:13:25;;;;;;;0.77;0.77;;;;;;;13.59;100.00;99156.63;4953465;28;20058;-57
2021/12/31 02:15:51;;;;;;;1.15;1.15;;;;;;;13.60;100.00;99166.06;4949557;28;20120;-55
2021/12/31 02:18:17;;;;;;;1.00;1.00;;;;;;;13.61;100.00;99156.59;4949686;28;20027;-58
2021/12/31 02:20:45;;;;;;;0.90;0.90;;;;;;;13.55;100.00;99154.16;4939690;28;20461;-58
2021/12/31 02:23:22;;;;;;;1.08;1.08;;;;;;;13.52;100.00;99156.78;4951946;28;20031;-58
2021/12/31 02:25:47;;;;;;;0.95;0.95;;;;;;;13.53;100.00;99158.50;4950862;28;20353;-57
2021/12/31 02:28:13;;;;;;;1.55;0.80;;;;;;;13.49;100.00;99147.41;4953056;28;20047;-56
2021/12/31 02:30:38;;;;;;;1.05;1.05;;;;;;;13.46;100.00;99156.91;4954371;28;20042;-57
2021/12/31 02:33:04;;;;;;;0.93;0.93;;;;;;;13.47;100.00;99150.91;4941594;28;20030;-56
2021/12/31 02:35:34;;;;;;;1.02;1.02;;;;;;;13.48;100.00;99132.00;4951485;28;20027;-58
2021/12/31 02:37:59;;;;;;;1.30;1.20;;;;;;;13.46;100.00;99139.75;4951638;28;20054;-58
2021/12/31 02:40:28;;;;;;;1.65;1.10;;;;;;;13.47;100.00;99143.16;4951946;28;20564;-57
2021/12/31 02:42:53;;;;;;;1.02;1.02;;;;;;;13.41;100.00;99144.13;4952065;28;20055;-57
2021/12/31 02:45:21;;;;;;;0.98;0.98;;;;;;;13.42;100.00;99147.56;4948723;28;20131;-58
2021/12/31 02:47:47;;;;;;;0.90;0.90;;;;;;;13.31;100.00;99129.78;4952063;28;20064;-57
2021/12/31 02:50:15;;;;;;;1.30;1.30;;;;;;;13.38;100.00;99151.94;4951917;28;20039;-59
2021/12/31 02:52:42;;;;;;;1.10;1.10;;;;;;;13.44;100.00;99141.53;4950521;28;20042;-57
2021/12/31 02:55:09;;;;;;;1.02;1.02;;;;;;;13.32;100.00;99123.75;4948730;28;20133;-59
2021/12/31 02:57:37;;;;;;;1.00;1.00;;;;;;;13.36;100.00;99125.38;4949514;28;20218;-58
2021/12/31 03:00:03;;;;;;;1.08;1.08;;;;;;;13.28;100.00;99133.25;4951531;28;20374;-58
2021/12/31 03:02:29;;;;;;;1.48;0.95;;;;;;;13.41;100.00;99139.00;4951138;28;20386;-59
2021/12/31 03:04:56;;;;;;;0.98;0.85;;;;;;;13.36;100.00;99125.38;4948908;28;20498;-58
2021/12/31 03:07:23;;;;;;;1.15;1.02;;;;;;;13.37;100.00;99121.91;4954330;28;20414;-59
2021/12/31 03:09:50;;;;;;;0.85;0.82;;;;;;;13.43;100.00;99134.66;4957241;28;20095;-59
2021/12/31 03:12:16;;;;;;;1.35;0.90;;;;;;;13.33;100.00;99117.72;4948915;28;20035;-58
2021/12/31 03:14:44;;;;;;;1.00;1.00;;;;;;;13.36;100.00;99127.97;4947497;28;20059;-58
2021/12/31 03:17:12;;;;;;;0.73;0.73;;;;;;;13.23;100.00;99142.84;4951165;28;20039;-57
2021/12/31 03:19:38;;;;;;;0.80;0.80;;;;;;;13.20;100.00;99126.59;4951613;28;20472;-59
2021/12/31 03:22:04;;;;;;;0.80;0.80;;;;;;;13.22;100.00;99133.41;4948800;28;20035;-58
2021/12/31 03:24:30;;;;;;;1.15;1.15;;;;;;;13.20;100.00;99142.88;4948993;28;20069;-58
2021/12/31 03:26:55;;;;;;;1.20;1.20;;;;;;;13.22;100.00;99142.84;4953064;28;20039;-57
2021/12/31 03:29:21;;;;;;;1.75;0.75;;;;;;;13.24;100.00;99147.09;4950445;28;20039;-58
2021/12/31 03:31:47;;;;;;;1.23;1.23;;;;;;;13.26;100.00;99132.47;4953003;28;20118;-59
2021/12/31 03:34:14;;;;;;;2.25;1.40;;;;;;;13.30;100.00;99147.84;4950826;28;20513;-58
2021/12/31 03:36:41;;;;;;;1.30;1.20;;;;;;;13.27;100.00;99125.59;4951078;28;20076;-59
2021/12/31 03:39:06;;;;;;;1.10;1.10;;;;;;;13.21;100.00;99128.28;4950685;28;20039;-58
2021/12/31 03:41:32;;;;;;;1.10;1.10;;;;;;;13.14;100.00;99129.31;4949745;28;20716;-58
2021/12/31 03:43:57;;;;;;;1.20;1.20;;;;;;;13.07;100.00;99141.41;4948004;28;20039;-59
2021/12/31 03:46:23;;;;;;;0.88;0.88;;;;;;;13.13;100.00;99135.31;4953214;28;20035;-56
2021/12/31 03:48:48;;;;;;;1.40;1.40;;;;;;;13.12;100.00;99156.78;4951771;28;20268;-57
2021/12/31 03:51:14;;;;;;;1.30;1.10;;;;;;;12.97;100.00;99151.94;4951065;28;20404;-58
2021/12/31 03:53:39;;;;;;;1.50;0.98;;;;;;;13.11;100.00;99150.78;4949833;28;20429;-57
2021/12/31 03:56:06;;;;;;;1.40;1.15;;;;;;;12.96;100.00;99134.78;4950211;28;20490;-59
2021/12/31 03:58:31;;;;;;;1.10;1.10;;;;;;;13.00;100.00;99139.00;4950005;28;20125;-58
2021/12/31 04:00:57;;;;;;;1.15;1.15;;;;;;;12.90;100.00;99134.94;4947697;28;20065;-57
2021/12/31 04:03:23;;;;;;;1.10;1.10;;;;;;;12.89;100.00;99134.09;4935883;28;20086;-59
2021/12/31 04:05:50;;;;;;;0.98;0.98;;;;;;;12.77;100.00;99145.44;4955580;28;20039;-58
2021/12/31 04:08:15;;;;;;;1.02;1.02;;;;;;;12.86;100.00;99138.44;4953969;28;20045;-59
2021/12/31 04:10:41;;;;;;;1.15;1.15;;;;;;;12.85;100.00;99131.59;4951921;28;20035;-58
2021/12/31 04:13:06;;;;;;;1.20;1.10;;;;;;;12.82;100.00;99130.78;4952906;28;20031;-59
2021/12/31 04:15:32;;;;;;;1.05;1.05;;;;;;;12.82;100.00;99125.63;4953603;28;20154;-59
2021/12/31 04:17:58;;;;;;;1.45;1.30;;;;;;;12.78;100.00;99128.28;4957722;28;20429;-57
2021/12/31 04:20:37;;;;;;;1.40;1.30;;;;;;;12.86;100.00;99123.00;4951744;28;20065;-58
2021/12/31 04:23:07;;;;;;;2.90;1.08;;;;;;;12.95;100.00;99125.38;4953515;28;20054;-58
2021/12/31 04:25:33;;;;;;;0.85;0.85;;;;;;;12.97;100.00;99114.19;4952287;28;20587;-59
2021/12/31 04:27:58;;;;;;;0.98;0.90;;;;;;;13.04;100.00;99128.63;4950108;28;20035;-57
2021/12/31 04:30:24;;;;;;;1.30;1.20;;;;;;;12.99;100.00;99127.00;4952637;28;20030;-57
2021/12/31 04:32:49;;;;;;;1.00;1.00;;;;;;;13.00;100.00;99123.56;4956193;28;20027;-59
2021/12/31 04:35:17;;;;;;;1.13;1.02;;;;;;;12.92;100.00;99122.88;4955790;28;20034;-58
2021/12/31 04:37:42;;;;;;;1.05;1.05;;;;;;;12.89;100.00;99133.25;4956294;28;20118;-59
2021/12/31 04:40:10;;;;;;;1.00;1.00;;;;;;;12.94;100.00;99131.41;4950711;28;20030;-58
2021/12/31 04:42:36;;;;;;;1.20;1.20;;;;;;;12.90;100.00;99124.66;4955859;28;20077;-57
2021/12/31 04:45:03;;;;;;;1.05;1.05;;;;;;;12.88;100.00;99126.38;4953699;28;20043;-56
2021/12/31 04:47:28;;;;;;;1.00;1.00;;;;;;;12.86;100.00;99131.56;4950551;28;20113;-57
2021/12/31 04:49:54;;;;;;;1.30;1.10;;;;;;;12.91;100.00;99122.03;4952046;28;20037;-59
2021/12/31 04:52:19;;;;;;;0.82;0.82;;;;;;;12.93;100.00;99132.28;4960546;28;20058;-58
2021/12/31 04:54:44;;;;;;;1.00;1.00;;;;;;;12.91;100.00;99131.47;4938673;28;20022;-58
2021/12/31 04:57:10;;;;;;;1.00;1.00;;;;;;;12.95;100.00;99133.94;4949985;28;20043;-59
2021/12/31 04:59:35;;;;;;;1.40;1.30;;;;;;;12.90;100.00;99125.47;4952316;28;20103;-59
2021/12/31 05:02:01;;;;;;;1.00;1.00;;;;;;;12.92;100.00;99139.16;4955738;28;20046;-59
2021/12/31 05:04:26;;;;;;;1.88;1.38;;;;;;;13.03;100.00;99132.06;4956630;28;20130;-59
2021/12/31 05:06:51;;;;;;;0.90;0.90;;;;;;;13.03;100.00;99138.94;4953007;28;20042;-58
2021/12/31 05:09:17;;;;;;;0.80;0.80;;;;;;;13.16;100.00;99143.81;4952639;28;20489;-59
2021/12/31 05:11:43;;;;;;;0.88;0.88;;;;;;;13.23;100.00;99144.56;4952294;28;20480;-57
2021/12/31 05:14:09;;;;;;;0.93;0.93;;;;;;;13.26;100.00;99150.50;4943961;28;20047;-58
2021/12/31 05:16:35;;;;;;;0.90;0.90;;;;;;;13.27;100.00;99157.34;4952130;28;20126;-59
2021/12/31 05:19:04;;;;;;;1.02;1.02;;;;;;;13.33;100.00;99151.19;4952816;28;20045;-58
2021/12/31 05:21:31;;;;;;;0.85;0.85;;;;;;;13.31;100.00;99145.25;4954796;28;20087;-58
2021/12/31 05:23:57;;;;;;;0.70;0.70;;;;;;;13.31;100.00;99158.13;4953836;28;20420;-59
2021/12/31 05:26:23;;;;;;;1.40;1.20;;;;;;;13.31;100.00;99147.81;4950607;28;20537;-58
2021/12/31 05:28:48;;;;;;;1.05;1.05;;;;;;;13.19;100.00;99153.22;4950975;28;20603;-56
2021/12/31 05:31:15;;;;;;;0.98;0.98;;;;;;;13.17;100.00;99154.97;4937728;28;20066;-58
2021/12/31 05:33:40;;;;;;;1.75;1.05;;;;;;;13.15;100.00;99159.31;4953010;28;20094;-59
2021/12/31 05:36:05;;;;;;;1.00;1.00;;;;;;;13.16;100.00;99163.56;4940317;28;20030;-58
2021/12/31 05:38:31;;;;;;;1.20;1.20;;;;;;;13.23;100.00;99171.16;4952969;28;20035;-59
2021/12/31 05:40:56;;;;;;;1.10;1.10;;;;;;;13.18;100.00;99144.66;4960915;28;20035;-59
2021/12/31 05:43:22;;;;;;;1.00;1.00;;;;;;;13.23;100.00;99152.28;4950699;28;20046;-59
2021/12/31 05:45:47;;;;;;;0.75;0.75;;;;;;;13.35;100.00;99152.03;4948875;28;20039;-58
2021/12/31 05:48:13;;;;;;;1.77;1.58;;;;;;;13.32;100.00;99170.13;4951676;28;20035;-55
2021/12/31 05:50:38;;;;;;;1.02;1.02;;;;;;;13.31;100.00;99165.00;4955957;28;20384;-58
2021/12/31 05:53:04;;;;;;;1.15;1.13;;;;;;;13.23;100.00;99165.16;4951662;28;20057;-58
2021/12/31 05:55:30;;;;;;;1.20;1.08;;;;;;;13.20;100.00;99160.91;4949460;28;20466;-56
2021/12/31 05:57:56;;;;;;;0.77;0.77;;;;;;;13.19;100.00;99171.25;4952012;28;20489;-56
2021/12/31 06:00:23;;;;;;;1.10;1.10;;;;;;;13.09;100.00;99156.84;4952885;28;20110;-58
2021/12/31 06:02:49;;;;;;;3.15;2.47;;;;;;;13.08;100.00;99171.44;4953870;28;20039;-58
2021/12/31 06:05:14;;;;;;;1.00;1.00;;;;;;;13.15;100.00;99197.94;4951363;28;20492;-56
2021/12/31 06:07:40;;;;;;;1.02;1.02;;;;;;;13.15;100.00;99182.50;4953264;28;20031;-57
2021/12/31 06:10:05;;;;;;;1.00;1.00;;;;;;;13.09;100.00;99174.84;4952410;28;20049;-53
2021/12/31 06:12:33;;;;;;;1.23;0.85;;;;;;;13.06;100.00;99168.06;4950905;28;20058;-58
2021/12/31 06:15:02;;;;;;;1.30;1.20;;;;;;;12.99;100.00;99181.91;4948411;28;20165;-58
2021/12/31 06:17:28;;;;;;;1.15;1.15;;;;;;;13.05;100.00;99186.09;4950805;28;20575;-57
2021/12/31 06:19:54;;;;;;;0.75;0.75;;;;;;;13.02;100.00;99184.44;4956097;28;20097;-56
2021/12/31 06:22:21;;;;;;;0.82;0.82;;;;;;;13.07;100.00;99190.31;4953649;28;20113;-55
2021/12/31 06:24:46;;;;;;;1.00;1.00;;;;;;;13.04;100.00;99190.38;4947798;28;20413;-57
2021/12/31 06:27:11;;;;;;;1.00;1.00;;;;;;;12.95;100.00;99206.00;4952415;28;20046;-56
2021/12/31 06:29:37;;;;;;;0.88;0.88;;;;;;;13.04;100.00;99199.84;4951758;28;20027;-57
2021/12/31 06:32:03;;;;;;;1.00;0.85;;;;;;;13.09;100.00;99192.88;4948354;28;20042;-57
2021/12/31 06:34:28;;;;;;;0.98;0.95;;;;;;;13.01;100.00;99192.19;4946259;28;20252;-57
2021/12/31 06:36:54;;;;;;;1.33;1.25;;;;;;;13.04;100.00;99189.53;4952795;28;20122;-57
2021/12/31 06:39:19;;;;;;;0.82;0.82;;;;;;;13.00;100.00;99209.34;4952708;28;20085;-56
2021/12/31 06:41:45;;;;;;;0.93;0.93;;;;;;;12.94;100.00;99213.78;4949852;28;20032;-57
2021/12/31 06:44:10;;;;;;;1.10;1.10;;;;;;;12.99;100.00;99224.81;4951124;28;20042;-54
2021/12/31 06:46:35;;;;;;;0.80;0.80;;;;;;;12.98;100.00;99218.00;4955553;28;20062;-57
2021/12/31 06:49:01;;;;;;;0.90;0.90;;;;;;;13.06;100.00;99218.69;4951498;28;20604;-57
2021/12/31 06:51:26;;;;;;;2.05;1.08;;;;;;;13.01;100.00;99216.19;4950251;28;20122;-56
2021/12/31 06:53:52;;;;;;;1.08;0.77;;;;;;;12.94;100.00;99218.94;4953922;28;20038;-56
2021/12/31 06:56:17;;;;;;;0.90;0.90;;;;;;;12.99;100.00;99223.09;4952905;28;20031;-56
2021/12/31 06:58:44;;;;;;;0.70;0.70;;;;;;;12.95;100.00;99215.44;4952258;28;20039;-58
2021/12/31 07:01:10;;;;;;;1.42;0.70;;;;;;;12.95;100.00;99220.59;4947938;28;20023;-57
2021/12/31 07:03:37;;;;;;;0.77;0.77;;;;;;;12.95;100.00;99223.16;4949687;28;20031;-57
2021/12/31 07:06:03;;;;;;;1.35;0.90;;;;;;;12.97;100.00;99221.44;4950734;28;20026;-56
2021/12/31 07:08:28;;;;;;;0.80;0.80;;;;;;;12.99;100.00;99214.50;4952112;28;20033;-58
2021/12/31 07:10:54;;;;;;;0.80;0.80;;;;;;;13.02;100.00;99222.19;4950397;28;20031;-59
2021/12/31 07:13:20;;;;;;;1.40;1.20;;;;;;;13.02;100.00;99230.78;4951844;28;20107;-56
2021/12/31 07:15:50;;;;;;;0.93;0.85;;;;;;;12.93;100.00;99230.94;4956946;28;20081;-56
2021/12/31 07:18:21;;;;;;;1.00;1.00;;;;;;;12.98;100.00;99228.28;4955393;28;20688;-56
2021/12/31 07:20:47;;;;;;;1.17;0.95;;;;;;;13.05;100.00;99232.44;4949711;28;20083;-57
2021/12/31 07:23:15;;;;;;;2.53;0.88;;;;;;;13.11;100.00;99232.34;4950391;28;20141;-58
2021/12/31 07:25:42;;;;;;;0.90;0.90;;;;;;;13.14;100.00;99235.72;4954283;28;20034;-56
2021/12/31 07:28:09;;;;;;;3.03;1.20;;;;;;;13.25;100.00;99230.34;4953960;28;20039;-57
2021/12/31 07:30:35;;;;;;;1.10;1.05;;;;;;;13.25;100.00;99236.34;4948806;28;20093;-56
2021/12/31 07:33:01;;;;;;;1.00;1.00;;;;;;;13.27;100.00;99237.16;4951301;28;20027;-57
2021/12/31 07:35:27;;;;;;;1.20;1.20;;;;;;;13.24;100.00;99256.94;4951263;28;20039;-57
2021/12/31 07:37:55;;;;;;;1.17;1.08;;;;;;;13.20;100.00;99257.91;4950896;28;20078;-61
2021/12/31 07:40:27;;;;;;;1.50;0.80;;;;;;;13.17;100.00;99257.97;4953085;28;20023;-55
2021/12/31 07:42:52;;;;;;;0.98;0.98;;;;;;;13.20;100.00;99260.47;4953745;28;20038;-57
2021/12/31 07:45:18;;;;;;;1.40;1.27;;;;;;;13.26;100.00;99263.78;4955253;28;20042;-58
2021/12/31 07:47:44;;;;;;;1.17;0.90;;;;;;;13.27;100.00;99269.78;4950941;28;20134;-58
2021/12/31 07:50:11;;;;;;;1.10;1.00;;;;;;;13.28;100.00;99266.34;4955960;28;20051;-59
2021/12/31 07:52:37;;;;;;;1.23;1.20;;;;;;;13.31;100.00;99273.16;4955407;28;20387;-57
2021/12/31 07:55:02;;;;;;;1.25;1.00;;;;;;;13.32;100.00;99272.28;4958012;28;20027;-58
2021/12/31 07:57:28;;;;;;;1.10;1.10;;;;;;;13.36;100.00;99274.78;4952041;28;20213;-58
2021/12/31 07:59:53;;;;;;;1.00;1.00;;;;;;;13.40;100.00;99283.28;4950432;28;20019;-57
2021/12/31 08:02:18;;;;;;;1.50;0.80;;;;;;;13.35;100.00;99282.50;4954470;28;20212;-58
2021/12/31 08:04:44;;;;;;;1.17;1.17;;;;;;;13.46;100.00;99290.88;4953381;28;20371;-58
2021/12/31 08:07:09;;;;;;;2.45;1.40;;;;;;;13.46;100.00;99291.72;4949514;28;20030;-58
2021/12/31 08:09:35;;;;;;;1.45;1.27;;;;;;;13.49;100.00;99278.78;4953104;28;20305;-57
2021/12/31 08:12:00;;;;;;;3.17;1.00;;;;;;;13.52;100.00;99294.19;4953587;28;20564;-57
2021/12/31 08:14:25;;;;;;;1.05;0.85;;;;;;;13.64;100.00;99285.34;4954587;28;20066;-58
2021/12/31 08:16:52;;;;;;;0.80;0.80;;;;;;;13.77;100.00;99288.50;4950535;28;20055;-60
2021/12/31 08:19:19;;;;;;;1.55;1.45;;;;;;;13.71;100.00;99290.34;4953481;28;20043;-60
2021/12/31 08:21:44;;;;;;;1.88;1.77;;;;;;;13.87;100.00;99279.72;4955990;28;20035;-59
2021/12/31 08:24:10;;;;;;;1.08;1.08;;;;;;;13.87;100.00;99285.72;4954322;28;20042;-58
2021/12/31 08:26:36;;;;;;;0.95;0.90;;;;;;;13.90;100.00;99277.06;4950668;28;20089;-60
2021/12/31 08:29:01;;;;;;;1.10;1.10;;;;;;;13.96;100.00;99289.81;4953256;28;20448;-55
2021/12/31 08:31:26;;;;;;;1.00;1.00;;;;;;;13.91;100.00;99289.94;4953347;28;20031;-60
2021/12/31 08:33:52;;;;;;;1.00;1.00;;;;;;;13.99;100.00;99287.16;4951034;28;20041;-59
2021/12/31 08:36:17;;;;;;;1.90;1.20;;;;;;;14.02;100.00;99292.25;4950445;28;20884;-57
2021/12/31 08:38:42;;;;;;;1.00;1.00;;;;;;;14.14;100.00;99287.66;4951566;28;20386;-58
2021/12/31 08:41:08;;;;;;;1.10;1.10;;;;;;;14.07;100.00;99277.53;4954207;28;20399;-57
2021/12/31 08:43:33;;;;;;;1.00;1.00;;;;;;;14.27;100.00;99288.22;4952188;28;20034;-58
2021/12/31 08:45:59;;;;;;;1.40;1.30;;;;;;;14.29;100.00;99281.31;4949705;28;20078;-58
2021/12/31 08:48:24;;;;;;;1.00;1.00;;;;;;;14.45;100.00;99282.69;4952343;28;20039;-58
2021/12/31 08:50:50;;;;;;;1.17;1.17;;;;;;;14.45;100.00;99281.81;4951816;28;20038;-59
2021/12/31 08:53:15;;;;;;;1.10;1.10;;;;;;;14.42;100.00;99287.06;4950866;28;20038;-59
2021/12/31 08:55:42;;;;;;;1.20;1.08;;;;;;;14.48;100.00;99284.31;4950134;28;20024;-57
2021/12/31 08:58:07;;;;;;;1.75;1.33;;;;;;;14.44;100.00;99278.41;4951293;28;20069;-58
2021/12/31 09:00:33;;;;;;;1.20;1.20;;;;;;;14.51;100.00;99267.03;4954572;28;20027;-57
2021/12/31 09:02:58;;;;;;;1.17;1.15;;;;;;;14.59;100.00;99269.44;4951206;28;20122;-58
2021/12/31 09:05:24;;;;;;;1.17;1.17;;;;;;;14.68;100.00;99268.38;4949458;28;20027;-58
2021/12/31 09:07:50;;;;;;;1.85;1.00;;;;;;;14.71;100.00;99273.44;4952785;28;20313;-52
2021/12/31 09:10:16;;;;;;;0.80;0.80;;;;;;;14.68;100.00;99270.94;4953295;28;20035;-56
2021/12/31 09:12:44;;;;;;;2.05;1.33;;;;;;;14.69;100.00;99267.47;4950426;28;20086;-55
2021/12/31 09:15:12;;;;;;;1.40;1.30;;;;;;;14.66;100.00;99263.22;4950016;28;20541;-57
2021/12/31 09:17:37;;;;;;;1.20;1.20;;;;;;;14.67;100.00;99266.66;4954258;28;20039;-58
2021/12/31 09:20:05;;;;;;;1.30;1.30;;;;;;;14.77;100.00;99261.22;4951768;28;20034;-58
2021/12/31 09:22:30;;;;;;;0.90;0.90;;;;;;;14.74;100.00;99255.28;4950836;28;20109;-57
2021/12/31 09:24:58;;;;;;;1.05;1.05;;;;;;;14.87;100.00;99260.09;4949861;28;20162;-57
2021/12/31 09:27:24;;;;;;;1.42;0.90;;;;;;;14.79;100.00;99249.13;4953704;28;20047;-59
2021/12/31 09:29:50;;;;;;;1.20;1.20;;;;;;;14.88;100.00;99264.38;4952441;28;20425;-58
2021/12/31 09:32:16;;;;;;;1.10;1.10;;;;;;;14.89;98.96;99257.50;4949328;28;20026;-57
2021/12/31 09:34:43;;;;;;;2.17;1.05;;;;;;;14.88;98.32;99258.38;4950649;28;20637;-58
2021/12/31 09:37:10;;;;;;;1.27;1.20;;;;;;;14.96;96.31;99259.84;4952530;28;20478;-60
2021/12/31 09:39:35;;;;;;;1.00;1.00;;;;;;;15.03;96.20;99255.38;4952764;28;20489;-58
2021/12/31 09:42:01;;;;;;;1.35;1.35;;;;;;;15.03;96.95;99265.69;4948973;28;20030;-60
2021/12/31 09:44:26;;;;;;;1.30;1.30;;;;;;;15.10;95.80;99259.50;4951967;28;20031;-59
2021/12/31 09:46:51;;;;;;;1.15;1.15;;;;;;;15.15;91.72;99257.59;4952553;28;20443;-59
2021/12/31 09:49:18;;;;;;;1.42;1.20;;;;;;;15.28;91.25;99258.13;4950474;28;20032;-59
2021/12/31 09:51:44;;;;;;;1.10;1.00;;;;;;;15.22;91.41;99258.31;4949470;28;20035;-60
2021/12/31 09:54:11;;;;;;;1.10;1.10;;;;;;;15.23;93.02;99245.34;4949985;28;20490;-60
2021/12/31 09:56:40;;;;;;;0.95;0.95;;;;;;;15.26;90.05;99258.19;4953304;28;20031;-59
2021/12/31 09:59:08;;;;;;;1.30;1.30;;;;;;;15.22;90.59;99253.13;4948592;28;20502;-60
2021/12/31 10:01:43;;;;;;;1.05;1.05;;;;;;;15.24;91.64;99249.63;4947098;28;20030;-60
2021/12/31 10:04:09;;;;;;;1.52;1.42;;;;;;;15.26;91.37;99242.69;4951592;28;20370;-60
2021/12/31 10:06:34;;;;;;;1.58;1.48;;;;;;;15.26;90.43;99250.44;4953197;28;20030;-60
2021/12/31 10:09:03;;;;;;;0.90;0.90;;;;;;;15.29;91.38;99236.56;4934623;28;20069;-60
2021/12/31 10:11:29;;;;;;;1.02;1.02;;;;;;;15.41;90.25;99241.38;4948017;28;20030;-60
2021/12/31 10:14:05;;;;;;;1.27;1.27;;;;;;;15.52;87.83;99227.31;4949689;28;20135;-60
2021/12/31 10:16:40;;;;;;;1.40;1.40;;;;;;;15.67;86.69;99223.41;4913086;29;20462;-60
2021/12/31 10:19:13;;;;;;;;;;;;;;;15.69;86.47;99219.06;4909773;29;20502;-60
2021/12/31 10:21:43;;;;;;;1.20;1.20;;;;;;;15.73;84.10;99227.56;4911975;29;20280;-59
2021/12/31 10:24:39;;;;;;;3.88;1.20;;;;;;;15.75;84.41;99210.25;4915073;29;20036;-60
2021/12/31 10:27:14;;;;;;;1.40;1.40;;;;;;;15.64;86.27;99217.50;4914091;29;20020;-59
2021/12/31 10:29:56;;;;;;;2.13;1.50;;;;;;;15.62;84.08;99220.13;4908242;29;20036;-59
2021/12/31 10:32:25;;;;;;;1.15;1.15;;;;;;;15.65;85.40;99204.53;4914055;29;20024;-59
2021/12/31 10:34:50;;;;;;;2.85;1.40;;;;;;;15.71;85.31;99208.66;4913152;29;20614;-59
2021/12/31 10:37:24;;;;;;;1.38;1.25;;;;;;;15.76;85.85;99199.88;4911143;29;20098;-55
2021/12/31 10:40:01;;;;;;;1.20;1.20;;;;;;;15.75;85.80;99205.06;4911086;29;20388;-53
2021/12/31 10:42:33;;;;;;;1.60;1.60;;;;;;;15.67;86.71;99194.97;4914922;29;20032;-57
2021/12/31 10:45:00;;;;;;;1.38;1.27;;;;;;;15.74;84.48;99195.66;4912332;29;20243;-55
2021/12/31 10:47:37;;;;;;;1.33;1.23;;;;;;;15.65;85.18;99198.50;4909770;29;20047;-58
2021/12/31 10:50:02;;;;;;;1.90;1.80;;;;;;;15.67;86.11;99192.38;4908887;29;20186;-59
2021/12/31 10:53:27;;;;;;;1.75;1.65;;;;;;;15.85;84.81;99188.41;4913919;29;20210;-59
2021/12/31 10:55:44;;;;;;;1.40;1.30;;;;;;;15.96;83.61;99179.41;4904380;29;20064;-58
2021/12/31 10:58:14;;;;;;;1.67;1.58;;;;;;;16.15;82.19;99176.22;4907602;29;20036;-59
2021/12/31 11:00:44;;;;;;;2.63;1.10;;;;;;;16.27;80.73;99171.50;4912297;29;20485;-59
2021/12/31 11:03:10;;;;;;;1.23;1.10;;;;;;;16.22;79.83;99182.88;4912911;29;20032;-60
2021/12/31 11:05:38;;;;;;;1.02;1.02;;;;;;;16.24;78.91;99181.09;4909544;29;20036;-61
2021/12/31 11:08:13;;;;;;;1.30;1.30;;;;;;;16.15;79.13;99165.88;4908957;29;20071;-61
2021/12/31 11:10:39;;;;;;;1.45;1.15;;;;;;;16.14;80.33;99153.84;4913414;29;20034;-61
2021/12/31 11:13:09;;;;;;;0.90;0.90;;;;;;;15.96;80.89;99157.84;4916146;29;20429;-60
2021/12/31 11:15:35;;;;;;;1.17;1.17;;;;;;;16.06;80.62;99153.25;4940758;28;20253;-58
2021/12/31 11:18:00;;;;;;;1.45;1.35;;;;;;;16.12;79.53;99148.72;4951683;28;20038;-60
2021/12/31 11:20:26;;;;;;;1.77;0.98;;;;;;;16.10;79.90;99145.34;4955847;28;20034;-58
2021/12/31 11:22:52;;;;;;;1.02;1.02;;;;;;;16.11;80.46;99151.34;4956064;28;20022;-60
2021/12/31 11:25:18;;;;;;;1.42;1.42;;;;;;;16.07;79.40;99148.03;4950948;28;20041;-60
2021/12/31 11:27:47;;;;;;;1.60;1.23;;;;;;;16.09;80.48;99146.22;4952598;28;20034;-60
2021/12/31 11:30:26;;;;;;;2.55;1.10;;;;;;;16.12;81.34;99135.78;4954083;28;20062;-61
2021/12/31 11:33:00;;;;;;;1.95;1.85;;;;;;;16.11;79.70;99125.50;4954902;28;20357;-61